sensor_id;sensor_type;location;lat;lon;timestamp;temperature;humidity
6724;DHT22;3399;52.530;13.304;2023-04-08T00:00:20;5.60;99.90
6724;DHT22;3399;52.530;13.304;2023-04-08T00:02:46;5.60;99.90
6724;DHT22;3399;52.530;13.304;2023-04-08T00:05:11;5.50;99.90
6724;DHT22;3399;52.530;13.304;2023-04-08T00:07:37;5.60;99.90
6724;DHT22;3399;52.530;13.304;2023-04-08T00:10:03;5.50;99.90
6724;DHT22;3399;52.530;13.304;2023-04-08T00:12:28;5.60;99.90
6724;DHT22;3399;52.530;13.304;2023-04-08T00:14:54;5.60;99.90
6724;DHT22;3399;52.530;13.304;2023-04-08T00:17:20;5.60;99.90
6724;DHT22;3399;52.530;13.304;2023-04-08T00:19:45;5.60;99.90
6724;DHT22;3399;52.530;13.304;2023-04-08T00:22:11;5.60;99.90
6724;DHT22;3399;52.530;13.304;2023-04-08T00:24:36;5.60;99.90
6724;DHT22;3399;52.530;13.304;2023-04-08T00:27:02;5.60;99.90
6724;DHT22;3399;52.530;13.304;2023-04-08T00:29:28;5.60;99.90
6724;DHT22;3399;52.530;13.304;2023-04-08T00:31:53;5.60;99.90
6724;DHT22;3399;52.530;13.304;2023-04-08T00:34:19;5.50;99.90
6724;DHT22;3399;52.530;13.304;2023-04-08T00:36:45;5.50;99.90
6724;DHT22;3399;52.530;13.304;2023-04-08T00:39:12;5.50;99.90
6724;DHT22;3399;52.530;13.304;2023-04-08T00:41:38;5.50;99.90
6724;DHT22;3399;52.530;13.304;2023-04-08T00:44:04;5.60;99.90
6724;DHT22;3399;52.530;13.304;2023-04-08T00:46:30;5.60;99.90
6724;DHT22;3399;52.530;13.304;2023-04-08T00:48:58;5.50;99.90
6724;DHT22;3399;52.530;13.304;2023-04-08T00:51:27;5.50;99.90
6724;DHT22;3399;52.530;13.304;2023-04-08T00:53:53;5.50;99.90
6724;DHT22;3399;52.530;13.304;2023-04-08T00:56:20;5.50;99.90
6724;DHT22;3399;52.530;13.304;2023-04-08T00:58:46;5.50;99.90
6724;DHT22;3399;52.530;13.304;2023-04-08T01:01:19;5.50;99.90
6724;DHT22;3399;52.530;13.304;2023-04-08T01:03:54;5.50;99.90
6724;DHT22;3399;52.530;13.304;2023-04-08T01:06:50;5.50;99.90
6724;DHT22;3399;52.530;13.304;2023-04-08T01:09:20;5.50;99.90
6724;DHT22;3399;52.530;13.304;2023-04-08T01:11:49;5.60;99.90
6724;DHT22;3399;52.530;13.304;2023-04-08T01:14:20;5.50;99.90
6724;DHT22;3399;52.530;13.304;2023-04-08T01:16:46;5.50;99.90
6724;DHT22;3399;52.530;13.304;2023-04-08T01:19:20;5.50;99.90
6724;DHT22;3399;52.530;13.304;2023-04-08T01:21:48;5.50;99.90
6724;DHT22;3399;52.530;13.304;2023-04-08T01:24:22;5.50;99.90
6724;DHT22;3399;52.530;13.304;2023-04-08T01:26:49;5.50;99.90
6724;DHT22;3399;52.530;13.304;2023-04-08T01:29:15;5.50;99.90
6724;DHT22;3399;52.530;13.304;2023-04-08T01:31:41;5.50;99.90
6724;DHT22;3399;52.530;13.304;2023-04-08T01:34:09;5.50;99.90
6724;DHT22;3399;52.530;13.304;2023-04-08T01:36:36;5.50;99.90
6724;DHT22;3399;52.530;13.304;2023-04-08T01:39:04;5.50;99.90
6724;DHT22;3399;52.530;13.304;2023-04-08T01:41:33;5.50;99.90
6724;DHT22;3399;52.530;13.304;2023-04-08T01:44:01;5.50;99.90
6724;DHT22;3399;52.530;13.304;2023-04-08T01:46:28;5.50;99.90
6724;DHT22;3399;52.530;13.304;2023-04-08T01:48:55;5.60;99.90
6724;DHT22;3399;52.530;13.304;2023-04-08T01:51:22;5.60;99.90
6724;DHT22;3399;52.530;13.304;2023-04-08T01:53:47;5.60;99.90
6724;DHT22;3399;52.530;13.304;2023-04-08T01:56:14;5.60;99.90
6724;DHT22;3399;52.530;13.304;2023-04-08T01:58:49;5.60;99.90
6724;DHT22;3399;52.530;13.304;2023-04-08T02:01:19;5.70;99.90
6724;DHT22;3399;52.530;13.304;2023-04-08T02:03:46;5.70;99.90
6724;DHT22;3399;52.530;13.304;2023-04-08T02:06:12;5.70;99.90
6724;DHT22;3399;52.530;13.304;2023-04-08T02:08:37;5.70;99.90
6724;DHT22;3399;52.530;13.304;2023-04-08T02:11:03;5.70;99.90
6724;DHT22;3399;52.530;13.304;2023-04-08T02:13:29;5.70;99.90
6724;DHT22;3399;52.530;13.304;2023-04-08T02:16:02;5.70;99.90
6724;DHT22;3399;52.530;13.304;2023-04-08T02:18:30;5.70;99.90
6724;DHT22;3399;52.530;13.304;2023-04-08T02:21:06;5.70;99.90
6724;DHT22;3399;52.530;13.304;2023-04-08T02:23:34;5.70;99.90
6724;DHT22;3399;52.530;13.304;2023-04-08T02:26:11;5.70;99.90
6724;DHT22;3399;52.530;13.304;2023-04-08T02:28:39;5.70;99.90
6724;DHT22;3399;52.530;13.304;2023-04-08T02:31:05;5.70;99.90
6724;DHT22;3399;52.530;13.304;2023-04-08T02:33:33;5.70;99.90
6724;DHT22;3399;52.530;13.304;2023-04-08T02:36:00;5.70;99.90
6724;DHT22;3399;52.530;13.304;2023-04-08T02:38:27;5.70;99.90
6724;DHT22;3399;52.530;13.304;2023-04-08T02:40:55;5.70;99.90
6724;DHT22;3399;52.530;13.304;2023-04-08T02:43:20;5.70;99.90
6724;DHT22;3399;52.530;13.304;2023-04-08T02:45:46;5.70;99.90
6724;DHT22;3399;52.530;13.304;2023-04-08T02:48:12;5.70;99.90
6724;DHT22;3399;52.530;13.304;2023-04-08T02:50:37;5.70;99.90
6724;DHT22;3399;52.530;13.304;2023-04-08T02:53:04;5.60;99.90
6724;DHT22;3399;52.530;13.304;2023-04-08T02:55:29;5.60;99.90
6724;DHT22;3399;52.530;13.304;2023-04-08T02:57:55;5.70;99.90
6724;DHT22;3399;52.530;13.304;2023-04-08T03:00:20;5.60;99.90
6724;DHT22;3399;52.530;13.304;2023-04-08T03:02:46;5.60;99.90
6724;DHT22;3399;52.530;13.304;2023-04-08T03:05:11;5.60;99.90
6724;DHT22;3399;52.530;13.304;2023-04-08T03:07:37;5.60;99.90
6724;DHT22;3399;52.530;13.304;2023-04-08T03:10:03;5.70;99.90
6724;DHT22;3399;52.530;13.304;2023-04-08T03:12:29;5.60;99.90
6724;DHT22;3399;52.530;13.304;2023-04-08T03:14:55;5.70;99.90
6724;DHT22;3399;52.530;13.304;2023-04-08T03:17:21;5.60;99.90
6724;DHT22;3399;52.530;13.304;2023-04-08T03:19:46;5.60;99.90
6724;DHT22;3399;52.530;13.304;2023-04-08T03:22:12;5.60;99.90
6724;DHT22;3399;52.530;13.304;2023-04-08T03:24:38;5.60;99.90
6724;DHT22;3399;52.530;13.304;2023-04-08T03:27:04;5.60;99.90
6724;DHT22;3399;52.530;13.304;2023-04-08T03:29:30;5.60;99.90
6724;DHT22;3399;52.530;13.304;2023-04-08T03:31:55;5.60;99.90
6724;DHT22;3399;52.530;13.304;2023-04-08T03:34:20;5.60;99.90
6724;DHT22;3399;52.530;13.304;2023-04-08T03:36:46;5.60;99.90
6724;DHT22;3399;52.530;13.304;2023-04-08T03:39:11;5.60;99.90
6724;DHT22;3399;52.530;13.304;2023-04-08T03:41:37;5.60;99.90
6724;DHT22;3399;52.530;13.304;2023-04-08T03:44:03;5.60;99.90
6724;DHT22;3399;52.530;13.304;2023-04-08T03:46:28;5.70;99.90
6724;DHT22;3399;52.530;13.304;2023-04-08T03:48:54;5.60;99.90
6724;DHT22;3399;52.530;13.304;2023-04-08T03:51:19;5.70;99.90
6724;DHT22;3399;52.530;13.304;2023-04-08T03:53:45;5.70;99.90
6724;DHT22;3399;52.530;13.304;2023-04-08T03:56:12;5.70;99.90
6724;DHT22;3399;52.530;13.304;2023-04-08T03:58:37;5.70;99.90
6724;DHT22;3399;52.530;13.304;2023-04-08T04:01:03;5.70;99.90
6724;DHT22;3399;52.530;13.304;2023-04-08T04:03:29;5.70;99.90
6724;DHT22;3399;52.530;13.304;2023-04-08T04:05:54;5.60;99.90
6724;DHT22;3399;52.530;13.304;2023-04-08T04:08:20;5.70;99.90
6724;DHT22;3399;52.530;13.304;2023-04-08T04:10:45;5.70;99.90
6724;DHT22;3399;52.530;13.304;2023-04-08T04:13:11;5.70;99.90
6724;DHT22;3399;52.530;13.304;2023-04-08T04:15:40;5.70;99.90
6724;DHT22;3399;52.530;13.304;2023-04-08T04:18:06;5.60;99.90
6724;DHT22;3399;52.530;13.304;2023-04-08T04:20:31;5.70;99.90
6724;DHT22;3399;52.530;13.304;2023-04-08T04:22:57;5.70;99.90
6724;DHT22;3399;52.530;13.304;2023-04-08T04:25:22;5.70;99.90
6724;DHT22;3399;52.530;13.304;2023-04-08T04:27:48;5.70;99.90
6724;DHT22;3399;52.530;13.304;2023-04-08T04:30:13;5.70;99.90
6724;DHT22;3399;52.530;13.304;2023-04-08T04:32:43;5.80;99.90
6724;DHT22;3399;52.530;13.304;2023-04-08T04:35:10;5.70;99.90
6724;DHT22;3399;52.530;13.304;2023-04-08T04:37:35;5.70;99.90
6724;DHT22;3399;52.530;13.304;2023-04-08T04:40:02;5.70;99.90
6724;DHT22;3399;52.530;13.304;2023-04-08T04:42:27;5.80;99.90
6724;DHT22;3399;52.530;13.304;2023-04-08T04:44:55;5.80;99.90
6724;DHT22;3399;52.530;13.304;2023-04-08T04:47:23;5.80;99.90
6724;DHT22;3399;52.530;13.304;2023-04-08T04:49:49;5.80;99.90
6724;DHT22;3399;52.530;13.304;2023-04-08T04:52:15;5.80;99.90
6724;DHT22;3399;52.530;13.304;2023-04-08T04:54:40;5.80;99.90
6724;DHT22;3399;52.530;13.304;2023-04-08T04:57:06;5.80;99.90
6724;DHT22;3399;52.530;13.304;2023-04-08T04:59:31;5.80;99.90
6724;DHT22;3399;52.530;13.304;2023-04-08T05:01:57;5.80;99.90
6724;DHT22;3399;52.530;13.304;2023-04-08T05:04:23;5.80;99.90
6724;DHT22;3399;52.530;13.304;2023-04-08T05:06:49;5.80;99.90
6724;DHT22;3399;52.530;13.304;2023-04-08T05:09:14;5.80;99.90
6724;DHT22;3399;52.530;13.304;2023-04-08T05:11:40;5.80;99.90
6724;DHT22;3399;52.530;13.304;2023-04-08T05:14:05;5.80;99.90
6724;DHT22;3399;52.530;13.304;2023-04-08T05:16:31;5.90;99.90
6724;DHT22;3399;52.530;13.304;2023-04-08T05:18:57;5.90;99.90
6724;DHT22;3399;52.530;13.304;2023-04-08T05:21:22;5.90;99.90
6724;DHT22;3399;52.530;13.304;2023-04-08T05:23:48;5.90;99.90
6724;DHT22;3399;52.530;13.304;2023-04-08T05:26:20;5.90;99.90
6724;DHT22;3399;52.530;13.304;2023-04-08T05:28:49;5.90;99.90
6724;DHT22;3399;52.530;13.304;2023-04-08T05:31:16;5.90;99.90
6724;DHT22;3399;52.530;13.304;2023-04-08T05:33:41;6.00;99.90
6724;DHT22;3399;52.530;13.304;2023-04-08T05:36:07;6.00;99.90
6724;DHT22;3399;52.530;13.304;2023-04-08T05:38:32;6.00;99.90
6724;DHT22;3399;52.530;13.304;2023-04-08T05:40:58;6.00;99.90
6724;DHT22;3399;52.530;13.304;2023-04-08T05:43:23;6.10;99.90
6724;DHT22;3399;52.530;13.304;2023-04-08T05:45:49;6.10;99.90
6724;DHT22;3399;52.530;13.304;2023-04-08T05:48:15;6.10;99.90
6724;DHT22;3399;52.530;13.304;2023-04-08T05:50:41;6.20;99.90
6724;DHT22;3399;52.530;13.304;2023-04-08T05:53:08;6.20;99.90
6724;DHT22;3399;52.530;13.304;2023-04-08T05:55:33;6.20;99.90
6724;DHT22;3399;52.530;13.304;2023-04-08T05:57:59;6.30;99.90
6724;DHT22;3399;52.530;13.304;2023-04-08T06:00:24;6.30;99.90
6724;DHT22;3399;52.530;13.304;2023-04-08T06:02:50;6.30;99.90
6724;DHT22;3399;52.530;13.304;2023-04-08T06:05:16;6.30;99.90
6724;DHT22;3399;52.530;13.304;2023-04-08T06:07:41;6.40;99.90
6724;DHT22;3399;52.530;13.304;2023-04-08T06:10:07;6.40;99.90
6724;DHT22;3399;52.530;13.304;2023-04-08T06:12:36;6.30;99.90
6724;DHT22;3399;52.530;13.304;2023-04-08T06:15:06;6.40;99.90
6724;DHT22;3399;52.530;13.304;2023-04-08T06:17:32;6.30;99.90
6724;DHT22;3399;52.530;13.304;2023-04-08T06:19:57;6.30;99.90
6724;DHT22;3399;52.530;13.304;2023-04-08T06:22:22;6.40;99.90
6724;DHT22;3399;52.530;13.304;2023-04-08T06:24:48;6.50;99.90
6724;DHT22;3399;52.530;13.304;2023-04-08T06:27:14;6.50;99.90
6724;DHT22;3399;52.530;13.304;2023-04-08T06:29:40;6.50;99.90
6724;DHT22;3399;52.530;13.304;2023-04-08T06:32:06;6.60;99.90
6724;DHT22;3399;52.530;13.304;2023-04-08T06:34:31;6.60;99.90
6724;DHT22;3399;52.530;13.304;2023-04-08T06:36:57;6.70;99.90
6724;DHT22;3399;52.530;13.304;2023-04-08T06:39:22;6.70;99.90
6724;DHT22;3399;52.530;13.304;2023-04-08T06:41:48;6.90;99.90
6724;DHT22;3399;52.530;13.304;2023-04-08T06:44:14;7.00;99.90
6724;DHT22;3399;52.530;13.304;2023-04-08T06:46:40;7.20;99.90
6724;DHT22;3399;52.530;13.304;2023-04-08T06:49:05;7.20;99.90
6724;DHT22;3399;52.530;13.304;2023-04-08T06:51:31;7.20;99.90
6724;DHT22;3399;52.530;13.304;2023-04-08T06:53:57;7.30;99.90
6724;DHT22;3399;52.530;13.304;2023-04-08T06:56:22;7.30;99.90
6724;DHT22;3399;52.530;13.304;2023-04-08T06:58:50;7.20;99.90
6724;DHT22;3399;52.530;13.304;2023-04-08T07:01:16;7.30;99.90
6724;DHT22;3399;52.530;13.304;2023-04-08T07:03:42;7.40;99.90
6724;DHT22;3399;52.530;13.304;2023-04-08T07:06:07;7.50;99.90
6724;DHT22;3399;52.530;13.304;2023-04-08T07:08:33;7.60;99.90
6724;DHT22;3399;52.530;13.304;2023-04-08T07:10:58;7.50;99.90
6724;DHT22;3399;52.530;13.304;2023-04-08T07:13:23;7.40;99.90
6724;DHT22;3399;52.530;13.304;2023-04-08T07:15:49;7.40;99.90
6724;DHT22;3399;52.530;13.304;2023-04-08T07:18:14;7.50;99.90
6724;DHT22;3399;52.530;13.304;2023-04-08T07:20:40;7.60;99.90
6724;DHT22;3399;52.530;13.304;2023-04-08T07:23:06;7.70;99.90
6724;DHT22;3399;52.530;13.304;2023-04-08T07:25:32;7.60;99.90
6724;DHT22;3399;52.530;13.304;2023-04-08T07:27:59;7.60;99.90
6724;DHT22;3399;52.530;13.304;2023-04-08T07:30:25;7.70;99.90
6724;DHT22;3399;52.530;13.304;2023-04-08T07:32:50;7.80;99.90
6724;DHT22;3399;52.530;13.304;2023-04-08T07:35:16;7.70;99.90
6724;DHT22;3399;52.530;13.304;2023-04-08T07:37:48;7.90;99.90
6724;DHT22;3399;52.530;13.304;2023-04-08T07:40:14;8.00;99.90
6724;DHT22;3399;52.530;13.304;2023-04-08T07:42:39;8.20;99.90
6724;DHT22;3399;52.530;13.304;2023-04-08T07:45:06;8.30;99.90
6724;DHT22;3399;52.530;13.304;2023-04-08T07:47:32;8.40;99.90
6724;DHT22;3399;52.530;13.304;2023-04-08T07:49:57;8.40;99.90
6724;DHT22;3399;52.530;13.304;2023-04-08T07:52:22;8.30;99.90
6724;DHT22;3399;52.530;13.304;2023-04-08T07:54:48;8.30;99.90
6724;DHT22;3399;52.530;13.304;2023-04-08T07:57:13;8.30;99.90
6724;DHT22;3399;52.530;13.304;2023-04-08T07:59:39;8.40;99.90
6724;DHT22;3399;52.530;13.304;2023-04-08T08:02:05;8.30;99.90
6724;DHT22;3399;52.530;13.304;2023-04-08T08:04:30;8.30;99.90
6724;DHT22;3399;52.530;13.304;2023-04-08T08:06:56;8.20;99.90
6724;DHT22;3399;52.530;13.304;2023-04-08T08:09:22;8.20;99.90
6724;DHT22;3399;52.530;13.304;2023-04-08T08:11:47;8.20;99.90
6724;DHT22;3399;52.530;13.304;2023-04-08T08:14:13;8.20;99.90
6724;DHT22;3399;52.530;13.304;2023-04-08T08:16:39;8.30;99.90
6724;DHT22;3399;52.530;13.304;2023-04-08T08:19:04;8.40;99.90
6724;DHT22;3399;52.530;13.304;2023-04-08T08:21:32;8.60;99.90
6724;DHT22;3399;52.530;13.304;2023-04-08T08:23:57;8.60;99.90
6724;DHT22;3399;52.530;13.304;2023-04-08T08:26:24;8.70;99.90
6724;DHT22;3399;52.530;13.304;2023-04-08T08:28:49;8.70;99.90
6724;DHT22;3399;52.530;13.304;2023-04-08T08:31:15;8.80;99.90
6724;DHT22;3399;52.530;13.304;2023-04-08T08:33:40;8.80;99.90
6724;DHT22;3399;52.530;13.304;2023-04-08T08:36:06;8.90;99.90
6724;DHT22;3399;52.530;13.304;2023-04-08T08:38:32;9.00;99.90
6724;DHT22;3399;52.530;13.304;2023-04-08T08:40:58;9.10;99.90
6724;DHT22;3399;52.530;13.304;2023-04-08T08:43:25;9.20;99.90
6724;DHT22;3399;52.530;13.304;2023-04-08T08:45:51;9.40;99.90
6724;DHT22;3399;52.530;13.304;2023-04-08T08:48:16;9.50;99.90
6724;DHT22;3399;52.530;13.304;2023-04-08T08:50:42;9.60;99.90
6724;DHT22;3399;52.530;13.304;2023-04-08T08:53:08;9.70;99.90
6724;DHT22;3399;52.530;13.304;2023-04-08T08:55:34;9.90;99.90
6724;DHT22;3399;52.530;13.304;2023-04-08T08:58:03;10.20;99.90
6724;DHT22;3399;52.530;13.304;2023-04-08T09:00:33;10.40;99.90
6724;DHT22;3399;52.530;13.304;2023-04-08T09:03:29;10.40;99.90
6724;DHT22;3399;52.530;13.304;2023-04-08T09:05:58;10.50;99.90
6724;DHT22;3399;52.530;13.304;2023-04-08T09:08:31;10.60;99.90
6724;DHT22;3399;52.530;13.304;2023-04-08T09:11:16;10.70;99.90
6724;DHT22;3399;52.530;13.304;2023-04-08T09:13:44;10.70;99.90
6724;DHT22;3399;52.530;13.304;2023-04-08T09:16:11;10.50;99.90
6724;DHT22;3399;52.530;13.304;2023-04-08T09:18:38;10.50;99.90
6724;DHT22;3399;52.530;13.304;2023-04-08T09:21:04;10.40;99.90
6724;DHT22;3399;52.530;13.304;2023-04-08T09:23:41;10.40;99.90
6724;DHT22;3399;52.530;13.304;2023-04-08T09:26:15;10.30;99.90
6724;DHT22;3399;52.530;13.304;2023-04-08T09:28:42;10.30;99.90
6724;DHT22;3399;52.530;13.304;2023-04-08T09:31:22;10.40;99.90
6724;DHT22;3399;52.530;13.304;2023-04-08T09:33:53;10.50;99.90
6724;DHT22;3399;52.530;13.304;2023-04-08T09:36:19;10.60;99.90
6724;DHT22;3399;52.530;13.304;2023-04-08T09:38:45;10.70;99.90
6724;DHT22;3399;52.530;13.304;2023-04-08T09:41:15;10.50;99.90
6724;DHT22;3399;52.530;13.304;2023-04-08T09:43:49;10.40;99.90
6724;DHT22;3399;52.530;13.304;2023-04-08T09:46:17;10.70;99.90
6724;DHT22;3399;52.530;13.304;2023-04-08T09:48:49;11.00;99.90
6724;DHT22;3399;52.530;13.304;2023-04-08T09:51:21;11.10;99.90
6724;DHT22;3399;52.530;13.304;2023-04-08T09:53:55;11.00;99.90
6724;DHT22;3399;52.530;13.304;2023-04-08T09:56:23;10.90;99.90
6724;DHT22;3399;52.530;13.304;2023-04-08T09:59:02;10.70;99.90
6724;DHT22;3399;52.530;13.304;2023-04-08T10:01:37;10.70;99.90
6724;DHT22;3399;52.530;13.304;2023-04-08T10:04:07;10.70;99.90
6724;DHT22;3399;52.530;13.304;2023-04-08T10:06:34;10.50;99.90
6724;DHT22;3399;52.530;13.304;2023-04-08T10:09:01;10.60;99.90
6724;DHT22;3399;52.530;13.304;2023-04-08T10:11:27;10.70;99.90
6724;DHT22;3399;52.530;13.304;2023-04-08T10:13:54;10.50;99.90
6724;DHT22;3399;52.530;13.304;2023-04-08T10:16:23;10.50;99.90
6724;DHT22;3399;52.530;13.304;2023-04-08T10:18:52;10.50;99.90
6724;DHT22;3399;52.530;13.304;2023-04-08T10:21:39;10.60;99.90
6724;DHT22;3399;52.530;13.304;2023-04-08T10:24:12;10.50;99.90
6724;DHT22;3399;52.530;13.304;2023-04-08T10:26:44;10.50;99.90
6724;DHT22;3399;52.530;13.304;2023-04-08T10:31:53;10.60;99.90
6724;DHT22;3399;52.530;13.304;2023-04-08T10:34:20;11.00;99.90
6724;DHT22;3399;52.530;13.304;2023-04-08T10:36:47;11.30;99.90
6724;DHT22;3399;52.530;13.304;2023-04-08T10:39:13;11.70;99.90
6724;DHT22;3399;52.530;13.304;2023-04-08T10:41:46;12.10;99.90
6724;DHT22;3399;52.530;13.304;2023-04-08T10:44:37;12.50;99.90
6724;DHT22;3399;52.530;13.304;2023-04-08T10:47:08;12.60;99.90
6724;DHT22;3399;52.530;13.304;2023-04-08T10:49:34;12.60;99.90
6724;DHT22;3399;52.530;13.304;2023-04-08T10:52:00;12.60;99.90
6724;DHT22;3399;52.530;13.304;2023-04-08T10:54:25;13.00;99.90
6724;DHT22;3399;52.530;13.304;2023-04-08T10:56:51;13.00;99.90
6724;DHT22;3399;52.530;13.304;2023-04-08T10:59:30;12.90;99.90
6724;DHT22;3399;52.530;13.304;2023-04-08T11:01:57;12.80;99.90
6724;DHT22;3399;52.530;13.304;2023-04-08T11:04:24;12.70;99.90
6724;DHT22;3399;52.530;13.304;2023-04-08T11:06:50;12.40;99.90
6724;DHT22;3399;52.530;13.304;2023-04-08T11:09:16;12.30;99.90
6724;DHT22;3399;52.530;13.304;2023-04-08T11:11:43;12.40;99.90
6724;DHT22;3399;52.530;13.304;2023-04-08T11:14:09;12.30;99.90
6724;DHT22;3399;52.530;13.304;2023-04-08T11:16:37;12.30;99.90
6724;DHT22;3399;52.530;13.304;2023-04-08T11:19:03;12.30;99.90
6724;DHT22;3399;52.530;13.304;2023-04-08T11:21:31;12.50;99.90
6724;DHT22;3399;52.530;13.304;2023-04-08T11:23:57;12.80;99.90
6724;DHT22;3399;52.530;13.304;2023-04-08T11:26:24;13.50;99.90
6724;DHT22;3399;52.530;13.304;2023-04-08T11:28:50;13.60;99.90
6724;DHT22;3399;52.530;13.304;2023-04-08T11:31:17;13.40;99.90
6724;DHT22;3399;52.530;13.304;2023-04-08T11:33:47;13.50;99.90
6724;DHT22;3399;52.530;13.304;2023-04-08T11:36:13;13.50;99.90
6724;DHT22;3399;52.530;13.304;2023-04-08T11:38:39;13.20;99.90
6724;DHT22;3399;52.530;13.304;2023-04-08T11:41:08;13.00;99.90
6724;DHT22;3399;52.530;13.304;2023-04-08T11:43:33;13.30;99.90
6724;DHT22;3399;52.530;13.304;2023-04-08T11:46:10;13.60;99.90
6724;DHT22;3399;52.530;13.304;2023-04-08T11:48:37;13.70;99.90
6724;DHT22;3399;52.530;13.304;2023-04-08T11:51:04;13.70;99.90
6724;DHT22;3399;52.530;13.304;2023-04-08T11:53:30;13.40;99.90
6724;DHT22;3399;52.530;13.304;2023-04-08T11:55:55;13.20;99.90
6724;DHT22;3399;52.530;13.304;2023-04-08T11:58:21;13.20;99.90
6724;DHT22;3399;52.530;13.304;2023-04-08T12:00:46;13.40;99.90
6724;DHT22;3399;52.530;13.304;2023-04-08T12:03:13;13.50;99.90
6724;DHT22;3399;52.530;13.304;2023-04-08T12:05:39;13.50;99.90
6724;DHT22;3399;52.530;13.304;2023-04-08T12:08:04;13.40;99.90
6724;DHT22;3399;52.530;13.304;2023-04-08T12:10:30;13.50;99.90
6724;DHT22;3399;52.530;13.304;2023-04-08T12:12:56;13.40;99.90
6724;DHT22;3399;52.530;13.304;2023-04-08T12:15:22;13.40;99.90
6724;DHT22;3399;52.530;13.304;2023-04-08T12:17:47;13.60;99.90
6724;DHT22;3399;52.530;13.304;2023-04-08T12:20:13;14.10;99.90
6724;DHT22;3399;52.530;13.304;2023-04-08T12:22:38;13.90;99.90
6724;DHT22;3399;52.530;13.304;2023-04-08T12:25:04;13.80;99.90
6724;DHT22;3399;52.530;13.304;2023-04-08T12:27:31;13.60;99.90
6724;DHT22;3399;52.530;13.304;2023-04-08T12:30:00;13.70;99.90
6724;DHT22;3399;52.530;13.304;2023-04-08T12:32:26;13.90;99.90
6724;DHT22;3399;52.530;13.304;2023-04-08T12:34:52;14.30;99.90
6724;DHT22;3399;52.530;13.304;2023-04-08T12:37:18;15.60;99.90
6724;DHT22;3399;52.530;13.304;2023-04-08T12:39:45;16.90;97.60
6724;DHT22;3399;52.530;13.304;2023-04-08T12:42:10;17.20;95.50
6724;DHT22;3399;52.530;13.304;2023-04-08T12:44:36;17.40;93.90
6724;DHT22;3399;52.530;13.304;2023-04-08T12:47:01;17.20;93.20
6724;DHT22;3399;52.530;13.304;2023-04-08T12:49:27;16.60;93.90
6724;DHT22;3399;52.530;13.304;2023-04-08T12:51:52;16.00;93.70
6724;DHT22;3399;52.530;13.304;2023-04-08T12:54:19;15.60;94.70
6724;DHT22;3399;52.530;13.304;2023-04-08T12:56:46;15.50;94.20
6724;DHT22;3399;52.530;13.304;2023-04-08T12:59:13;16.10;94.90
6724;DHT22;3399;52.530;13.304;2023-04-08T13:01:39;16.80;93.20
6724;DHT22;3399;52.530;13.304;2023-04-08T13:04:05;17.60;92.30
6724;DHT22;3399;52.530;13.304;2023-04-08T13:06:30;18.30;90.50
6724;DHT22;3399;52.530;13.304;2023-04-08T13:08:56;17.60;91.30
6724;DHT22;3399;52.530;13.304;2023-04-08T13:11:22;16.30;93.10
6724;DHT22;3399;52.530;13.304;2023-04-08T13:13:47;15.60;94.70
6724;DHT22;3399;52.530;13.304;2023-04-08T13:16:17;15.30;95.20
6724;DHT22;3399;52.530;13.304;2023-04-08T13:18:46;15.20;95.00
6724;DHT22;3399;52.530;13.304;2023-04-08T13:21:11;14.90;95.90
6724;DHT22;3399;52.530;13.304;2023-04-08T13:23:37;14.50;96.10
6724;DHT22;3399;52.530;13.304;2023-04-08T13:26:03;15.00;97.10
6724;DHT22;3399;52.530;13.304;2023-04-08T13:28:31;15.30;95.00
6724;DHT22;3399;52.530;13.304;2023-04-08T13:31:00;15.90;95.90
6724;DHT22;3399;52.530;13.304;2023-04-08T13:33:25;17.10;93.60
6724;DHT22;3399;52.530;13.304;2023-04-08T13:35:51;18.60;92.60
6724;DHT22;3399;52.530;13.304;2023-04-08T13:38:16;19.30;83.90
6724;DHT22;3399;52.530;13.304;2023-04-08T13:40:42;18.50;82.90
6724;DHT22;3399;52.530;13.304;2023-04-08T13:43:08;18.60;82.40
6724;DHT22;3399;52.530;13.304;2023-04-08T13:45:33;19.20;83.70
6724;DHT22;3399;52.530;13.304;2023-04-08T13:47:59;20.30;76.20
6724;DHT22;3399;52.530;13.304;2023-04-08T13:50:25;19.80;73.90
6724;DHT22;3399;52.530;13.304;2023-04-08T13:52:54;20.00;73.90
6724;DHT22;3399;52.530;13.304;2023-04-08T13:55:21;20.30;72.90
6724;DHT22;3399;52.530;13.304;2023-04-08T13:57:47;19.20;70.40
6724;DHT22;3399;52.530;13.304;2023-04-08T14:00:13;19.10;71.60
6724;DHT22;3399;52.530;13.304;2023-04-08T14:02:39;18.40;74.10
6724;DHT22;3399;52.530;13.304;2023-04-08T14:05:05;18.70;73.80
6724;DHT22;3399;52.530;13.304;2023-04-08T14:07:31;18.80;70.70
6724;DHT22;3399;52.530;13.304;2023-04-08T14:09:56;17.70;72.60
6724;DHT22;3399;52.530;13.304;2023-04-08T14:12:22;18.20;76.00
6724;DHT22;3399;52.530;13.304;2023-04-08T14:14:47;19.30;74.80
6724;DHT22;3399;52.530;13.304;2023-04-08T14:17:13;20.30;74.60
6724;DHT22;3399;52.530;13.304;2023-04-08T14:19:39;19.90;70.70
6724;DHT22;3399;52.530;13.304;2023-04-08T14:22:04;18.70;72.30
6724;DHT22;3399;52.530;13.304;2023-04-08T14:24:30;17.90;73.40
6724;DHT22;3399;52.530;13.304;2023-04-08T14:26:55;17.20;76.50
6724;DHT22;3399;52.530;13.304;2023-04-08T14:29:22;15.90;78.80
6724;DHT22;3399;52.530;13.304;2023-04-08T14:31:48;15.30;81.40
6724;DHT22;3399;52.530;13.304;2023-04-08T14:34:13;14.70;83.00
6724;DHT22;3399;52.530;13.304;2023-04-08T14:36:39;14.60;84.60
6724;DHT22;3399;52.530;13.304;2023-04-08T14:39:04;15.70;82.30
6724;DHT22;3399;52.530;13.304;2023-04-08T14:41:30;17.30;77.30
6724;DHT22;3399;52.530;13.304;2023-04-08T14:43:58;18.80;74.50
6724;DHT22;3399;52.530;13.304;2023-04-08T14:46:25;20.30;68.70
6724;DHT22;3399;52.530;13.304;2023-04-08T14:48:50;21.50;65.40
6724;DHT22;3399;52.530;13.304;2023-04-08T14:51:16;21.60;60.50
6724;DHT22;3399;52.530;13.304;2023-04-08T14:53:42;22.00;62.50
6724;DHT22;3399;52.530;13.304;2023-04-08T14:56:07;22.40;60.40
6724;DHT22;3399;52.530;13.304;2023-04-08T14:58:34;22.90;57.70
6724;DHT22;3399;52.530;13.304;2023-04-08T15:01:00;23.00;55.10
6724;DHT22;3399;52.530;13.304;2023-04-08T15:03:25;23.00;56.00
6724;DHT22;3399;52.530;13.304;2023-04-08T15:05:51;23.40;53.60
6724;DHT22;3399;52.530;13.304;2023-04-08T15:08:16;22.80;53.90
6724;DHT22;3399;52.530;13.304;2023-04-08T15:10:42;22.90;54.90
6724;DHT22;3399;52.530;13.304;2023-04-08T15:13:07;22.00;55.60
6724;DHT22;3399;52.530;13.304;2023-04-08T15:15:33;20.60;57.00
6724;DHT22;3399;52.530;13.304;2023-04-08T15:17:58;19.40;57.70
6724;DHT22;3399;52.530;13.304;2023-04-08T15:20:24;18.20;59.60
6724;DHT22;3399;52.530;13.304;2023-04-08T15:22:49;17.40;62.20
6724;DHT22;3399;52.530;13.304;2023-04-08T15:25:15;17.00;63.40
6724;DHT22;3399;52.530;13.304;2023-04-08T15:27:41;16.60;65.50
6724;DHT22;3399;52.530;13.304;2023-04-08T15:30:07;16.50;66.20
6724;DHT22;3399;52.530;13.304;2023-04-08T15:32:33;16.80;67.00
6724;DHT22;3399;52.530;13.304;2023-04-08T15:34:59;17.70;65.50
6724;DHT22;3399;52.530;13.304;2023-04-08T15:37:25;18.80;63.10
6724;DHT22;3399;52.530;13.304;2023-04-08T15:39:53;19.30;61.20
6724;DHT22;3399;52.530;13.304;2023-04-08T15:42:20;19.80;59.70
6724;DHT22;3399;52.530;13.304;2023-04-08T15:44:46;20.00;57.80
6724;DHT22;3399;52.530;13.304;2023-04-08T15:47:11;20.70;57.30
6724;DHT22;3399;52.530;13.304;2023-04-08T15:49:37;21.10;56.90
6724;DHT22;3399;52.530;13.304;2023-04-08T15:52:03;20.80;55.60
6724;DHT22;3399;52.530;13.304;2023-04-08T15:54:29;21.10;56.00